sensor_id;sensor_type;location;lat;lon;timestamp;temperature;humidity
72952;HTU21D;61102;51.956;5.878;2023-04-24T00:00:19;13.69;66.32
72952;HTU21D;61102;51.956;5.878;2023-04-24T00:02:45;13.71;66.33
72952;HTU21D;61102;51.956;5.878;2023-04-24T00:05:14;13.71;66.38
72952;HTU21D;61102;51.956;5.878;2023-04-24T00:07:42;13.74;66.19
72952;HTU21D;61102;51.956;5.878;2023-04-24T00:10:08;13.75;66.29
72952;HTU21D;61102;51.956;5.878;2023-04-24T00:12:34;13.76;66.23
72952;HTU21D;61102;51.956;5.878;2023-04-24T00:15:01;13.77;66.23
72952;HTU21D;61102;51.956;5.878;2023-04-24T00:17:27;13.77;66.02
72952;HTU21D;61102;51.956;5.878;2023-04-24T00:19:53;13.73;66.13
72952;HTU21D;61102;51.956;5.878;2023-04-24T00:22:25;13.74;66.19
72952;HTU21D;61102;51.956;5.878;2023-04-24T00:24:51;14.22;64.77
72952;HTU21D;61102;51.956;5.878;2023-04-24T00:27:17;13.93;65.34
72952;HTU21D;61102;51.956;5.878;2023-04-24T00:29:43;13.81;65.72
72952;HTU21D;61102;51.956;5.878;2023-04-24T00:32:10;13.77;65.97
72952;HTU21D;61102;51.956;5.878;2023-04-24T00:34:36;13.77;66.00
72952;HTU21D;61102;51.956;5.878;2023-04-24T00:37:02;13.79;66.05
72952;HTU21D;61102;51.956;5.878;2023-04-24T00:39:28;13.78;66.04
72952;HTU21D;61102;51.956;5.878;2023-04-24T00:41:54;13.78;66.05
72952;HTU21D;61102;51.956;5.878;2023-04-24T00:44:22;13.77;66.04
72952;HTU21D;61102;51.956;5.878;2023-04-24T00:46:49;13.73;66.30
72952;HTU21D;61102;51.956;5.878;2023-04-24T00:49:21;13.73;66.37
72952;HTU21D;61102;51.956;5.878;2023-04-24T00:51:47;14.11;65.14
72952;HTU21D;61102;51.956;5.878;2023-04-24T00:54:15;13.83;65.84
72952;HTU21D;61102;51.956;5.878;2023-04-24T00:56:42;13.73;66.30
72952;HTU21D;61102;51.956;5.878;2023-04-24T00:59:11;13.67;66.53
72952;HTU21D;61102;51.956;5.878;2023-04-24T01:01:38;13.67;66.67
72952;HTU21D;61102;51.956;5.878;2023-04-24T01:04:09;13.65;66.79
72952;HTU21D;61102;51.956;5.878;2023-04-24T01:06:38;13.63;66.86
72952;HTU21D;61102;51.956;5.878;2023-04-24T01:09:05;13.62;66.89
72952;HTU21D;61102;51.956;5.878;2023-04-24T01:11:31;13.61;66.95
72952;HTU21D;61102;51.956;5.878;2023-04-24T01:13:57;13.60;67.03
72952;HTU21D;61102;51.956;5.878;2023-04-24T01:16:24;13.61;67.03
72952;HTU21D;61102;51.956;5.878;2023-04-24T01:18:50;13.63;67.00
72952;HTU21D;61102;51.956;5.878;2023-04-24T01:21:19;13.64;67.01
72952;HTU21D;61102;51.956;5.878;2023-04-24T01:23:46;13.70;66.82
72952;HTU21D;61102;51.956;5.878;2023-04-24T01:26:14;13.69;66.85
72952;HTU21D;61102;51.956;5.878;2023-04-24T01:28:41;13.75;66.75
72952;HTU21D;61102;51.956;5.878;2023-04-24T01:31:07;13.77;66.66
72952;HTU21D;61102;51.956;5.878;2023-04-24T01:33:34;13.79;66.54
72952;HTU21D;61102;51.956;5.878;2023-04-24T01:36:00;13.78;66.56
72952;HTU21D;61102;51.956;5.878;2023-04-24T01:38:27;13.76;66.59
72952;HTU21D;61102;51.956;5.878;2023-04-24T01:40:53;13.75;66.61
72952;HTU21D;61102;51.956;5.878;2023-04-24T01:43:19;13.77;66.66
72952;HTU21D;61102;51.956;5.878;2023-04-24T01:45:46;13.76;66.60
72952;HTU21D;61102;51.956;5.878;2023-04-24T01:48:14;13.74;66.62
72952;HTU21D;61102;51.956;5.878;2023-04-24T01:50:41;13.75;66.61
72952;HTU21D;61102;51.956;5.878;2023-04-24T01:53:07;13.78;66.53
72952;HTU21D;61102;51.956;5.878;2023-04-24T01:55:33;13.80;66.46
72952;HTU21D;61102;51.956;5.878;2023-04-24T01:57:59;13.83;66.42
72952;HTU21D;61102;51.956;5.878;2023-04-24T02:00:26;13.83;66.43
72952;HTU21D;61102;51.956;5.878;2023-04-24T02:02:52;13.83;66.50
72952;HTU21D;61102;51.956;5.878;2023-04-24T02:05:19;13.84;66.56
72952;HTU21D;61102;51.956;5.878;2023-04-24T02:07:45;13.81;66.54
72952;HTU21D;61102;51.956;5.878;2023-04-24T02:10:11;13.76;66.57
72952;HTU21D;61102;51.956;5.878;2023-04-24T02:12:41;13.69;66.71
72952;HTU21D;61102;51.956;5.878;2023-04-24T02:15:08;13.67;66.81
72952;HTU21D;61102;51.956;5.878;2023-04-24T02:17:37;13.65;66.67
72952;HTU21D;61102;51.956;5.878;2023-04-24T02:20:05;13.62;66.75
72952;HTU21D;61102;51.956;5.878;2023-04-24T02:22:31;13.62;66.64
72952;HTU21D;61102;51.956;5.878;2023-04-24T02:25:01;13.62;66.65
72952;HTU21D;61102;51.956;5.878;2023-04-24T02:27:27;13.61;66.71
72952;HTU21D;61102;51.956;5.878;2023-04-24T02:29:53;13.61;66.60
72952;HTU21D;61102;51.956;5.878;2023-04-24T02:32:20;13.63;66.52
72952;HTU21D;61102;51.956;5.878;2023-04-24T02:34:46;13.63;66.56
72952;HTU21D;61102;51.956;5.878;2023-04-24T02:37:12;13.67;66.53
72952;HTU21D;61102;51.956;5.878;2023-04-24T02:39:38;13.69;66.47
72952;HTU21D;61102;51.956;5.878;2023-04-24T02:42:04;13.71;66.49
72952;HTU21D;61102;51.956;5.878;2023-04-24T02:44:31;13.70;66.53
72952;HTU21D;61102;51.956;5.878;2023-04-24T02:46:57;13.70;66.51
72952;HTU21D;61102;51.956;5.878;2023-04-24T02:49:23;13.69;66.53
72952;HTU21D;61102;51.956;5.878;2023-04-24T02:51:49;13.67;66.53
72952;HTU21D;61102;51.956;5.878;2023-04-24T02:54:15;13.66;66.59
72952;HTU21D;61102;51.956;5.878;2023-04-24T02:56:41;13.66;66.58
72952;HTU21D;61102;51.956;5.878;2023-04-24T02:59:08;13.64;66.62
72952;HTU21D;61102;51.956;5.878;2023-04-24T03:01:34;13.64;66.75
72952;HTU21D;61102;51.956;5.878;2023-04-24T03:04:00;13.61;66.73
72952;HTU21D;61102;51.956;5.878;2023-04-24T03:06:26;13.60;66.76
72952;HTU21D;61102;51.956;5.878;2023-04-24T03:08:53;13.61;66.84
72952;HTU21D;61102;51.956;5.878;2023-04-24T03:11:19;13.61;66.88
72952;HTU21D;61102;51.956;5.878;2023-04-24T03:13:45;13.60;66.94
72952;HTU21D;61102;51.956;5.878;2023-04-24T03:16:11;13.60;66.98
72952;HTU21D;61102;51.956;5.878;2023-04-24T03:18:37;13.58;67.06
72952;HTU21D;61102;51.956;5.878;2023-04-24T03:21:05;13.56;67.08
72952;HTU21D;61102;51.956;5.878;2023-04-24T03:23:32;13.53;67.17
72952;HTU21D;61102;51.956;5.878;2023-04-24T03:25:58;13.51;67.12
72952;HTU21D;61102;51.956;5.878;2023-04-24T03:28:24;13.45;67.11
72952;HTU21D;61102;51.956;5.878;2023-04-24T03:30:58;13.44;67.20
72952;HTU21D;61102;51.956;5.878;2023-04-24T03:33:26;13.44;67.23
72952;HTU21D;61102;51.956;5.878;2023-04-24T03:35:59;13.46;67.23
72952;HTU21D;61102;51.956;5.878;2023-04-24T03:38:27;13.45;67.27
72952;HTU21D;61102;51.956;5.878;2023-04-24T03:41:00;13.43;67.20
72952;HTU21D;61102;51.956;5.878;2023-04-24T03:43:39;13.43;67.17
72952;HTU21D;61102;51.956;5.878;2023-04-24T03:46:06;13.41;67.27
72952;HTU21D;61102;51.956;5.878;2023-04-24T03:48:39;13.41;67.20
72952;HTU21D;61102;51.956;5.878;2023-04-24T03:51:06;13.36;67.23
72952;HTU21D;61102;51.956;5.878;2023-04-24T03:53:34;13.32;67.29
72952;HTU21D;61102;51.956;5.878;2023-04-24T03:56:00;13.30;67.36
72952;HTU21D;61102;51.956;5.878;2023-04-24T03:58:27;13.27;67.36
72952;HTU21D;61102;51.956;5.878;2023-04-24T04:00:55;13.24;67.40
72952;HTU21D;61102;51.956;5.878;2023-04-24T04:03:43;13.24;67.16
72952;HTU21D;61102;51.956;5.878;2023-04-24T04:06:09;13.19;67.26
72952;HTU21D;61102;51.956;5.878;2023-04-24T04:08:37;13.14;67.33
72952;HTU21D;61102;51.956;5.878;2023-04-24T04:11:03;13.11;67.34
72952;HTU21D;61102;51.956;5.878;2023-04-24T04:13:30;13.10;67.36
72952;HTU21D;61102;51.956;5.878;2023-04-24T04:15:57;13.08;67.46
72952;HTU21D;61102;51.956;5.878;2023-04-24T04:18:23;13.07;67.42
72952;HTU21D;61102;51.956;5.878;2023-04-24T04:20:49;13.06;67.46
72952;HTU21D;61102;51.956;5.878;2023-04-24T04:23:16;13.07;67.37
72952;HTU21D;61102;51.956;5.878;2023-04-24T04:26:03;13.06;67.31
72952;HTU21D;61102;51.956;5.878;2023-04-24T04:28:42;13.05;67.28
72952;HTU21D;61102;51.956;5.878;2023-04-24T04:31:11;13.02;67.43
72952;HTU21D;61102;51.956;5.878;2023-04-24T04:33:37;12.99;67.52
72952;HTU21D;61102;51.956;5.878;2023-04-24T04:36:06;12.96;67.57
72952;HTU21D;61102;51.956;5.878;2023-04-24T04:38:36;12.93;67.56
72952;HTU21D;61102;51.956;5.878;2023-04-24T04:41:13;12.90;67.48
72952;HTU21D;61102;51.956;5.878;2023-04-24T04:43:40;12.86;67.61
72952;HTU21D;61102;51.956;5.878;2023-04-24T04:46:08;12.84;67.71
72952;HTU21D;61102;51.956;5.878;2023-04-24T04:48:48;12.84;67.72
72952;HTU21D;61102;51.956;5.878;2023-04-24T04:51:14;12.82;67.84
72952;HTU21D;61102;51.956;5.878;2023-04-24T04:53:40;12.82;67.84
72952;HTU21D;61102;51.956;5.878;2023-04-24T04:56:06;12.80;67.89
72952;HTU21D;61102;51.956;5.878;2023-04-24T04:58:38;12.79;67.90
72952;HTU21D;61102;51.956;5.878;2023-04-24T05:01:06;12.78;67.98
72952;HTU21D;61102;51.956;5.878;2023-04-24T05:03:39;12.79;67.97
72952;HTU21D;61102;51.956;5.878;2023-04-24T05:06:08;12.81;67.97
72952;HTU21D;61102;51.956;5.878;2023-04-24T05:08:37;12.79;67.93
72952;HTU21D;61102;51.956;5.878;2023-04-24T05:11:06;12.76;68.02
72952;HTU21D;61102;51.956;5.878;2023-04-24T05:13:32;12.74;68.15
72952;HTU21D;61102;51.956;5.878;2023-04-24T05:16:00;12.74;68.14
72952;HTU21D;61102;51.956;5.878;2023-04-24T05:18:27;13.18;66.91
72952;HTU21D;61102;51.956;5.878;2023-04-24T05:20:54;12.92;67.44
72952;HTU21D;61102;51.956;5.878;2023-04-24T05:23:20;12.87;67.72
72952;HTU21D;61102;51.956;5.878;2023-04-24T05:25:50;12.91;67.72
72952;HTU21D;61102;51.956;5.878;2023-04-24T05:28:16;12.96;67.72
72952;HTU21D;61102;51.956;5.878;2023-04-24T05:30:47;13.03;67.61
72952;HTU21D;61102;51.956;5.878;2023-04-24T05:33:15;13.46;66.27
72952;HTU21D;61102;51.956;5.878;2023-04-24T05:35:41;13.19;66.89
72952;HTU21D;61102;51.956;5.878;2023-04-24T05:38:13;13.11;67.24
72952;HTU21D;61102;51.956;5.878;2023-04-24T05:40:39;13.08;67.40
72952;HTU21D;61102;51.956;5.878;2023-04-24T05:43:05;13.11;67.48
72952;HTU21D;61102;51.956;5.878;2023-04-24T05:45:32;13.09;67.56
72952;HTU21D;61102;51.956;5.878;2023-04-24T05:47:58;13.08;67.64
72952;HTU21D;61102;51.956;5.878;2023-04-24T05:50:24;13.15;67.60
72952;HTU21D;61102;51.956;5.878;2023-04-24T05:52:50;13.16;67.52
72952;HTU21D;61102;51.956;5.878;2023-04-24T05:55:24;13.20;67.52
72952;HTU21D;61102;51.956;5.878;2023-04-24T05:57:52;13.24;67.45
72952;HTU21D;61102;51.956;5.878;2023-04-24T06:00:18;13.33;67.52
72952;HTU21D;61102;51.956;5.878;2023-04-24T06:02:52;13.38;67.44
72952;HTU21D;61102;51.956;5.878;2023-04-24T06:05:20;13.46;67.38
72952;HTU21D;61102;51.956;5.878;2023-04-24T06:07:46;13.53;67.40
72952;HTU21D;61102;51.956;5.878;2023-04-24T06:10:12;13.58;67.31
72952;HTU21D;61102;51.956;5.878;2023-04-24T06:12:43;13.61;67.37
72952;HTU21D;61102;51.956;5.878;2023-04-24T06:15:16;13.63;67.34
72952;HTU21D;61102;51.956;5.878;2023-04-24T06:17:56;13.63;67.34
72952;HTU21D;61102;51.956;5.878;2023-04-24T06:20:23;13.63;67.41
72952;HTU21D;61102;51.956;5.878;2023-04-24T06:22:49;13.67;67.46
72952;HTU21D;61102;51.956;5.878;2023-04-24T06:25:15;13.71;67.46
72952;HTU21D;61102;51.956;5.878;2023-04-24T06:27:41;13.79;67.58
72952;HTU21D;61102;51.956;5.878;2023-04-24T06:30:08;13.81;67.71
72952;HTU21D;61102;51.956;5.878;2023-04-24T06:32:34;13.90;67.73
72952;HTU21D;61102;51.956;5.878;2023-04-24T06:35:00;13.96;67.60
72952;HTU21D;61102;51.956;5.878;2023-04-24T06:37:27;13.97;67.56
72952;HTU21D;61102;51.956;5.878;2023-04-24T06:39:53;14.00;67.49
72952;HTU21D;61102;51.956;5.878;2023-04-24T06:42:21;14.04;67.58
72952;HTU21D;61102;51.956;5.878;2023-04-24T06:44:49;14.07;67.60
72952;HTU21D;61102;51.956;5.878;2023-04-24T06:47:15;14.05;67.44
72952;HTU21D;61102;51.956;5.878;2023-04-24T06:49:41;14.03;67.50
72952;HTU21D;61102;51.956;5.878;2023-04-24T06:52:08;14.07;67.55
72952;HTU21D;61102;51.956;5.878;2023-04-24T06:54:34;14.10;67.59
72952;HTU21D;61102;51.956;5.878;2023-04-24T06:57:00;14.09;67.59
72952;HTU21D;61102;51.956;5.878;2023-04-24T06:59:29;14.06;67.69
72952;HTU21D;61102;51.956;5.878;2023-04-24T07:01:56;14.04;67.89
72952;HTU21D;61102;51.956;5.878;2023-04-24T07:04:22;14.08;67.84
72952;HTU21D;61102;51.956;5.878;2023-04-24T07:06:50;14.07;67.80
72952;HTU21D;61102;51.956;5.878;2023-04-24T07:09:17;14.05;67.68
72952;HTU21D;61102;51.956;5.878;2023-04-24T07:11:45;13.98;67.82
72952;HTU21D;61102;51.956;5.878;2023-04-24T07:14:11;13.94;67.74
72952;HTU21D;61102;51.956;5.878;2023-04-24T07:16:38;13.88;67.72
72952;HTU21D;61102;51.956;5.878;2023-04-24T07:19:05;13.79;67.88
72952;HTU21D;61102;51.956;5.878;2023-04-24T07:21:33;13.70;68.10
72952;HTU21D;61102;51.956;5.878;2023-04-24T07:23:59;13.66;68.23
72952;HTU21D;61102;51.956;5.878;2023-04-24T07:26:27;13.61;68.17
72952;HTU21D;61102;51.956;5.878;2023-04-24T07:28:54;13.58;68.00
72952;HTU21D;61102;51.956;5.878;2023-04-24T07:31:20;13.51;68.04
72952;HTU21D;61102;51.956;5.878;2023-04-24T07:33:48;13.48;68.18
72952;HTU21D;61102;51.956;5.878;2023-04-24T07:36:14;13.46;68.13
72952;HTU21D;61102;51.956;5.878;2023-04-24T07:38:45;13.44;68.17
72952;HTU21D;61102;51.956;5.878;2023-04-24T07:41:12;13.44;68.23
72952;HTU21D;61102;51.956;5.878;2023-04-24T07:43:39;13.85;67.13
72952;HTU21D;61102;51.956;5.878;2023-04-24T07:46:05;13.56;67.51
72952;HTU21D;61102;51.956;5.878;2023-04-24T07:48:32;13.45;67.97
72952;HTU21D;61102;51.956;5.878;2023-04-24T07:50:58;13.35;67.94
72952;HTU21D;61102;51.956;5.878;2023-04-24T07:53:24;13.33;68.18
72952;HTU21D;61102;51.956;5.878;2023-04-24T07:55:50;13.30;68.26
72952;HTU21D;61102;51.956;5.878;2023-04-24T07:58:16;13.25;67.97
72952;HTU21D;61102;51.956;5.878;2023-04-24T08:00:42;13.21;67.97
72952;HTU21D;61102;51.956;5.878;2023-04-24T08:03:08;13.17;68.12
72952;HTU21D;61102;51.956;5.878;2023-04-24T08:05:34;13.12;67.54
72952;HTU21D;61102;51.956;5.878;2023-04-24T08:08:02;13.03;67.76
72952;HTU21D;61102;51.956;5.878;2023-04-24T08:10:28;12.97;67.98
72952;HTU21D;61102;51.956;5.878;2023-04-24T08:12:54;12.94;68.10
72952;HTU21D;61102;51.956;5.878;2023-04-24T08:15:21;12.93;68.25
72952;HTU21D;61102;51.956;5.878;2023-04-24T08:17:47;12.89;67.97
72952;HTU21D;61102;51.956;5.878;2023-04-24T08:20:13;12.86;68.20
72952;HTU21D;61102;51.956;5.878;2023-04-24T08:22:40;12.88;68.32
72952;HTU21D;61102;51.956;5.878;2023-04-24T08:25:06;12.87;68.19
72952;HTU21D;61102;51.956;5.878;2023-04-24T08:27:33;12.85;68.33
72952;HTU21D;61102;51.956;5.878;2023-04-24T08:29:59;12.81;68.46
72952;HTU21D;61102;51.956;5.878;2023-04-24T08:32:26;12.78;68.55
72952;HTU21D;61102;51.956;5.878;2023-04-24T08:34:56;12.74;68.54
72952;HTU21D;61102;51.956;5.878;2023-04-24T08:37:23;12.77;68.57
72952;HTU21D;61102;51.956;5.878;2023-04-24T08:39:50;12.79;68.65
72952;HTU21D;61102;51.956;5.878;2023-04-24T08:42:17;12.81;68.74
72952;HTU21D;61102;51.956;5.878;2023-04-24T08:44:44;12.87;68.69
72952;HTU21D;61102;51.956;5.878;2023-04-24T08:47:11;12.91;68.75
72952;HTU21D;61102;51.956;5.878;2023-04-24T08:49:38;12.93;68.55
72952;HTU21D;61102;51.956;5.878;2023-04-24T08:52:05;12.92;68.55
72952;HTU21D;61102;51.956;5.878;2023-04-24T08:54:33;12.95;68.67
72952;HTU21D;61102;51.956;5.878;2023-04-24T08:57:00;12.93;68.65
72952;HTU21D;61102;51.956;5.878;2023-04-24T08:59:31;12.90;68.97
72952;HTU21D;61102;51.956;5.878;2023-04-24T09:01:57;12.90;68.55
72952;HTU21D;61102;51.956;5.878;2023-04-24T09:04:24;12.87;68.60
72952;HTU21D;61102;51.956;5.878;2023-04-24T09:06:53;12.84;68.52
72952;HTU21D;61102;51.956;5.878;2023-04-24T09:09:21;12.80;68.46
72952;HTU21D;61102;51.956;5.878;2023-04-24T09:11:52;12.77;68.65
72952;HTU21D;61102;51.956;5.878;2023-04-24T09:14:20;12.80;68.63
72952;HTU21D;61102;51.956;5.878;2023-04-24T09:16:47;12.82;68.91
72952;HTU21D;61102;51.956;5.878;2023-04-24T09:19:14;12.91;68.75
72952;HTU21D;61102;51.956;5.878;2023-04-24T09:21:40;12.94;68.87
72952;HTU21D;61102;51.956;5.878;2023-04-24T09:24:08;13.34;67.71
72952;HTU21D;61102;51.956;5.878;2023-04-24T09:26:40;13.03;68.16
72952;HTU21D;61102;51.956;5.878;2023-04-24T09:29:06;13.01;68.83
72952;HTU21D;61102;51.956;5.878;2023-04-24T09:31:32;13.08;68.93
72952;HTU21D;61102;51.956;5.878;2023-04-24T09:34:00;13.15;68.99
72952;HTU21D;61102;51.956;5.878;2023-04-24T09:36:33;13.20;68.65
72952;HTU21D;61102;51.956;5.878;2023-04-24T09:39:01;13.23;68.78
72952;HTU21D;61102;51.956;5.878;2023-04-24T09:41:28;13.31;68.77
72952;HTU21D;61102;51.956;5.878;2023-04-24T09:46:41;13.39;68.49
72952;HTU21D;61102;51.956;5.878;2023-04-24T09:49:15;13.41;68.52
72952;HTU21D;61102;51.956;5.878;2023-04-24T09:51:42;13.44;68.30
72952;HTU21D;61102;51.956;5.878;2023-04-24T09:54:16;13.51;68.87
72952;HTU21D;61102;51.956;5.878;2023-04-24T09:56:44;13.55;68.40
72952;HTU21D;61102;51.956;5.878;2023-04-24T09:59:14;13.59;68.03
72952;HTU21D;61102;51.956;5.878;2023-04-24T10:01:41;13.58;67.79
72952;HTU21D;61102;51.956;5.878;2023-04-24T10:04:24;13.62;68.55
72952;HTU21D;61102;51.956;5.878;2023-04-24T10:06:52;13.68;68.02
72952;HTU21D;61102;51.956;5.878;2023-04-24T10:09:20;13.74;68.12
72952;HTU21D;61102;51.956;5.878;2023-04-24T10:11:48;13.86;68.04
72952;HTU21D;61102;51.956;5.878;2023-04-24T10:14:19;13.95;67.58
72952;HTU21D;61102;51.956;5.878;2023-04-24T10:16:47;14.01;66.71
72952;HTU21D;61102;51.956;5.878;2023-04-24T10:19:14;14.10;67.12
72952;HTU21D;61102;51.956;5.878;2023-04-24T10:21:42;14.34;67.07
72952;HTU21D;61102;51.956;5.878;2023-04-24T10:24:16;14.54;66.71
72952;HTU21D;61102;51.956;5.878;2023-04-24T10:26:44;14.65;66.39
72952;HTU21D;61102;51.956;5.878;2023-04-24T10:29:12;14.82;66.76
72952;HTU21D;61102;51.956;5.878;2023-04-24T10:31:38;14.97;65.52
72952;HTU21D;61102;51.956;5.878;2023-04-24T10:34:05;15.11;65.95
72952;HTU21D;61102;51.956;5.878;2023-04-24T10:36:37;15.34;66.10
72952;HTU21D;61102;51.956;5.878;2023-04-24T10:39:10;15.51;65.87
72952;HTU21D;61102;51.956;5.878;2023-04-24T10:41:37;15.62;64.97
72952;HTU21D;61102;51.956;5.878;2023-04-24T10:46:30;15.56;63.05
72952;HTU21D;61102;51.956;5.878;2023-04-24T10:48:57;15.49;64.14
72952;HTU21D;61102;51.956;5.878;2023-04-24T10:51:26;15.49;64.60
72952;HTU21D;61102;51.956;5.878;2023-04-24T10:56:50;15.63;64.18
72952;HTU21D;61102;51.956;5.878;2023-04-24T10:59:28;15.63;61.03
72952;HTU21D;61102;51.956;5.878;2023-04-24T11:02:00;15.54;61.73
72952;HTU21D;61102;51.956;5.878;2023-04-24T11:04:35;15.39;60.60
72952;HTU21D;61102;51.956;5.878;2023-04-24T11:07:05;15.17;60.84
72952;HTU21D;61102;51.956;5.878;2023-04-24T11:09:32;14.93;59.89
72952;HTU21D;61102;51.956;5.878;2023-04-24T11:12:11;14.73;59.54
72952;HTU21D;61102;51.956;5.878;2023-04-24T11:15:00;14.63;60.12
72952;HTU21D;61102;51.956;5.878;2023-04-24T11:17:37;14.62;59.77
72952;HTU21D;61102;51.956;5.878;2023-04-24T11:20:09;14.74;60.02
72952;HTU21D;61102;51.956;5.878;2023-04-24T11:22:37;14.81;61.15
72952;HTU21D;61102;51.956;5.878;2023-04-24T11:25:06;14.89;61.74
72952;HTU21D;61102;51.956;5.878;2023-04-24T11:27:40;14.87;59.35
72952;HTU21D;61102;51.956;5.878;2023-04-24T11:30:07;14.88;58.93
72952;HTU21D;61102;51.956;5.878;2023-04-24T11:32:39;14.95;59.42
72952;HTU21D;61102;51.956;5.878;2023-04-24T11:37:40;15.01;59.11
72952;HTU21D;61102;51.956;5.878;2023-04-24T11:40:08;15.07;59.99
72952;HTU21D;61102;51.956;5.878;2023-04-24T11:42:35;15.27;60.54
72952;HTU21D;61102;51.956;5.878;2023-04-24T11:45:08;15.62;59.91
72952;HTU21D;61102;51.956;5.878;2023-04-24T11:47:34;15.93;58.29
72952;HTU21D;61102;51.956;5.878;2023-04-24T11:50:00;16.08;58.29
72952;HTU21D;61102;51.956;5.878;2023-04-24T11:52:27;16.10;57.34
72952;HTU21D;61102;51.956;5.878;2023-04-24T11:54:53;16.05;58.05
72952;HTU21D;61102;51.956;5.878;2023-04-24T11:57:20;15.91;58.99
72952;HTU21D;61102;51.956;5.878;2023-04-24T11:59:52;15.78;57.93
72952;HTU21D;61102;51.956;5.878;2023-04-24T12:02:25;15.63;57.86
72952;HTU21D;61102;51.956;5.878;2023-04-24T12:04:54;15.44;58.51
72952;HTU21D;61102;51.956;5.878;2023-04-24T12:07:21;15.28;58.51
72952;HTU21D;61102;51.956;5.878;2023-04-24T12:09:50;15.06;58.93
72952;HTU21D;61102;51.956;5.878;2023-04-24T12:12:20;14.88;59.35
72952;HTU21D;61102;51.956;5.878;2023-04-24T12:14:52;14.67;60.06
72952;HTU21D;61102;51.956;5.878;2023-04-24T12:17:27;14.58;60.67
72952;HTU21D;61102;51.956;5.878;2023-04-24T12:19:57;14.51;60.15
72952;HTU21D;61102;51.956;5.878;2023-04-24T12:22:24;14.51;60.78
72952;HTU21D;61102;51.956;5.878;2023-04-24T12:25:03;14.60;61.09
72952;HTU21D;61102;51.956;5.878;2023-04-24T12:27:32;14.60;60.36
72952;HTU21D;61102;51.956;5.878;2023-04-24T12:30:01;14.66;59.66
72952;HTU21D;61102;51.956;5.878;2023-04-24T12:32:27;14.83;59.73
72952;HTU21D;61102;51.956;5.878;2023-04-24T12:34:54;15.07;58.86
72952;HTU21D;61102;51.956;5.878;2023-04-24T12:37:22;15.70;57.39
72952;HTU21D;61102;51.956;5.878;2023-04-24T12:40:02;15.45;58.00
72952;HTU21D;61102;51.956;5.878;2023-04-24T12:42:29;15.38;57.81
72952;HTU21D;61102;51.956;5.878;2023-04-24T12:44:56;15.87;54.84
72952;HTU21D;61102;51.956;5.878;2023-04-24T12:47:24;15.43;57.00
72952;HTU21D;61102;51.956;5.878;2023-04-24T12:49:50;15.29;57.15
72952;HTU21D;61102;51.956;5.878;2023-04-24T12:52:19;15.17;57.40
72952;HTU21D;61102;51.956;5.878;2023-04-24T12:54:45;15.16;58.00
72952;HTU21D;61102;51.956;5.878;2023-04-24T12:57:12;15.18;58.02
72952;HTU21D;61102;51.956;5.878;2023-04-24T12:59:38;15.24;58.12
72952;HTU21D;61102;51.956;5.878;2023-04-24T13:02:06;15.23;57.45
72952;HTU21D;61102;51.956;5.878;2023-04-24T13:04:32;15.75;55.81
72952;HTU21D;61102;51.956;5.878;2023-04-24T13:06:58;15.51;58.01
72952;HTU21D;61102;51.956;5.878;2023-04-24T13:09:27;15.53;58.29
72952;HTU21D;61102;51.956;5.878;2023-04-24T13:11:54;15.55;57.90
72952;HTU21D;61102;51.956;5.878;2023-04-24T13:14:21;15.49;56.75
72952;HTU21D;61102;51.956;5.878;2023-04-24T13:16:49;15.48;57.64
72952;HTU21D;61102;51.956;5.878;2023-04-24T13:19:15;15.57;55.94
72952;HTU21D;61102;51.956;5.878;2023-04-24T13:21:41;15.56;56.36
72952;HTU21D;61102;51.956;5.878;2023-04-24T13:24:07;15.68;57.41
72952;HTU21D;61102;51.956;5.878;2023-04-24T13:26:35;15.72;55.73
72952;HTU21D;61102;51.956;5.878;2023-04-24T13:29:01;15.70;56.81
72952;HTU21D;61102;51.956;5.878;2023-04-24T13:31:27;15.68;55.35
72952;HTU21D;61102;51.956;5.878;2023-04-24T13:33:53;15.53;54.45
72952;HTU21D;61102;51.956;5.878;2023-04-24T13:36:19;15.45;55.17
72952;HTU21D;61102;51.956;5.878;2023-04-24T13:38:45;15.47;55.16
72952;HTU21D;61102;51.956;5.878;2023-04-24T13:41:11;15.52;55.26
72952;HTU21D;61102;51.956;5.878;2023-04-24T13:43:37;15.60;54.64
72952;HTU21D;61102;51.956;5.878;2023-04-24T13:46:03;15.82;54.11
72952;HTU21D;61102;51.956;5.878;2023-04-24T13:48:30;15.96;53.67
72952;HTU21D;61102;51.956;5.878;2023-04-24T13:50:57;16.03;53.21
72952;HTU21D;61102;51.956;5.878;2023-04-24T13:53:23;16.25;52.78
72952;HTU21D;61102;51.956;5.878;2023-04-24T13:55:49;16.41;52.82
72952;HTU21D;61102;51.956;5.878;2023-04-24T13:58:15;16.45;51.99
72952;HTU21D;61102;51.956;5.878;2023-04-24T14:00:41;16.52;50.25
72952;HTU21D;61102;51.956;5.878;2023-04-24T14:03:07;16.50;50.61
72952;HTU21D;61102;51.956;5.878;2023-04-24T14:05:34;16.55;50.41
72952;HTU21D;61102;51.956;5.878;2023-04-24T14:08:00;16.93;50.97
72952;HTU21D;61102;51.956;5.878;2023-04-24T14:10:26;17.26;50.57
72952;HTU21D;61102;51.956;5.878;2023-04-24T14:12:53;17.38;50.84
72952;HTU21D;61102;51.956;5.878;2023-04-24T14:15:19;17.34;51.13
72952;HTU21D;61102;51.956;5.878;2023-04-24T14:17:45;17.22;50.82
72952;HTU21D;61102;51.956;5.878;2023-04-24T14:20:12;16.95;50.08
72952;HTU21D;61102;51.956;5.878;2023-04-24T14:22:38;16.89;51.40
72952;HTU21D;61102;51.956;5.878;2023-04-24T14:25:05;16.87;52.24
72952;HTU21D;61102;51.956;5.878;2023-04-24T14:27:32;16.86;50.02
72952;HTU21D;61102;51.956;5.878;2023-04-24T14:29:58;16.84;50.60
72952;HTU21D;61102;51.956;5.878;2023-04-24T14:32:24;16.75;49.66
72952;HTU21D;61102;51.956;5.878;2023-04-24T14:34:50;16.62;48.41
72952;HTU21D;61102;51.956;5.878;2023-04-24T14:37:16;16.55;50.15
72952;HTU21D;61102;51.956;5.878;2023-04-24T14:39:42;16.54;49.36
72952;HTU21D;61102;51.956;5.878;2023-04-24T14:42:08;16.59;49.60
72952;HTU21D;61102;51.956;5.878;2023-04-24T14:44:34;16.67;48.63
72952;HTU21D;61102;51.956;5.878;2023-04-24T14:47:00;16.74;47.54
72952;HTU21D;61102;51.956;5.878;2023-04-24T14:49:26;16.78;49.64
72952;HTU21D;61102;51.956;5.878;2023-04-24T14:51:52;16.88;49.03
72952;HTU21D;61102;51.956;5.878;2023-04-24T14:54:18;16.98;50.05
72952;HTU21D;61102;51.956;5.878;2023-04-24T14:56:45;16.99;48.35
72952;HTU21D;61102;51.956;5.878;2023-04-24T14:59:11;16.98;48.47
72952;HTU21D;61102;51.956;5.878;2023-04-24T15:01:37;16.88;48.82
72952;HTU21D;61102;51.956;5.878;2023-04-24T15:04:03;16.74;47.92
72952;HTU21D;61102;51.956;5.878;2023-04-24T15:06:29;16.64;47.69
72952;HTU21D;61102;51.956;5.878;2023-04-24T15:08:57;16.59;48.57
72952;HTU21D;61102;51.956;5.878;2023-04-24T15:11:23;16.48;49.74
72952;HTU21D;61102;51.956;5.878;2023-04-24T15:13:50;16.35;49.98
72952;HTU21D;61102;51.956;5.878;2023-04-24T15:16:16;16.32;50.62
72952;HTU21D;61102;51.956;5.878;2023-04-24T15:18:42;16.31;51.20
72952;HTU21D;61102;51.956;5.878;2023-04-24T15:21:08;16.32;50.55
72952;HTU21D;61102;51.956;5.878;2023-04-24T15:23:34;16.35;52.04
72952;HTU21D;61102;51.956;5.878;2023-04-24T15:26:00;16.37;51.98
72952;HTU21D;61102;51.956;5.878;2023-04-24T15:28:27;16.34;51.26